sensor_id;sensor_type;location;lat;lon;timestamp;pressure;altitude;pressure_sealevel;temperature;humidity
8160;BME280;27404;52.398;9.646;2024-03-08T00:01:53;101521.03;;;-0.61;100.00
8160;BME280;27404;52.398;9.646;2024-03-08T00:04:18;101516.53;;;-0.70;100.00
8160;BME280;27404;52.398;9.646;2024-03-08T00:06:43;101521.31;;;-0.74;100.00
8160;BME280;27404;52.398;9.646;2024-03-08T00:09:11;101523.81;;;-0.92;100.00
8160;BME280;27404;52.398;9.646;2024-03-08T00:11:37;101518.31;;;-0.91;100.00
8160;BME280;27404;52.398;9.646;2024-03-08T00:14:02;101518.06;;;-0.78;100.00
8160;BME280;27404;52.398;9.646;2024-03-08T00:16:32;101510.00;;;-0.68;100.00
8160;BME280;27404;52.398;9.646;2024-03-08T00:18:58;101511.28;;;-0.62;100.00
8160;BME280;27404;52.398;9.646;2024-03-08T00:21:24;101505.78;;;-0.70;100.00
8160;BME280;27404;52.398;9.646;2024-03-08T00:23:49;101513.09;;;-0.92;100.00
8160;BME280;27404;52.398;9.646;2024-03-08T00:26:15;101509.25;;;-0.99;100.00
8160;BME280;27404;52.398;9.646;2024-03-08T00:28:41;101516.06;;;-0.95;100.00
8160;BME280;27404;52.398;9.646;2024-03-08T00:31:06;101510.78;;;-1.07;100.00
8160;BME280;27404;52.398;9.646;2024-03-08T00:33:32;101515.88;;;-1.03;100.00
8160;BME280;27404;52.398;9.646;2024-03-08T00:35:58;101517.97;;;-1.17;100.00
8160;BME280;27404;52.398;9.646;2024-03-08T00:38:23;101516.81;;;-1.24;100.00
8160;BME280;27404;52.398;9.646;2024-03-08T00:40:49;101509.59;;;-1.33;100.00
8160;BME280;27404;52.398;9.646;2024-03-08T00:43:14;101511.97;;;-1.40;100.00
8160;BME280;27404;52.398;9.646;2024-03-08T00:45:41;101510.69;;;-1.46;100.00
8160;BME280;27404;52.398;9.646;2024-03-08T00:48:08;101509.53;;;-1.43;100.00
8160;BME280;27404;52.398;9.646;2024-03-08T00:50:34;101504.22;;;-1.33;100.00
8160;BME280;27404;52.398;9.646;2024-03-08T00:53:00;101496.28;;;-1.45;100.00
8160;BME280;27404;52.398;9.646;2024-03-08T00:55:25;101499.19;;;-1.58;100.00
8160;BME280;27404;52.398;9.646;2024-03-08T00:57:51;101496.81;;;-1.51;100.00
8160;BME280;27404;52.398;9.646;2024-03-08T01:00:19;101494.31;;;-1.43;100.00
8160;BME280;27404;52.398;9.646;2024-03-08T01:02:45;101490.53;;;-1.30;100.00
8160;BME280;27404;52.398;9.646;2024-03-08T01:05:11;101488.56;;;-1.28;100.00
8160;BME280;27404;52.398;9.646;2024-03-08T01:07:36;101484.22;;;-1.20;100.00
8160;BME280;27404;52.398;9.646;2024-03-08T01:10:03;101483.06;;;-1.27;100.00
8160;BME280;27404;52.398;9.646;2024-03-08T01:12:29;101480.13;;;-1.24;100.00
8160;BME280;27404;52.398;9.646;2024-03-08T01:14:55;101475.66;;;-1.44;100.00
8160;BME280;27404;52.398;9.646;2024-03-08T01:17:20;101475.22;;;-1.50;100.00
8160;BME280;27404;52.398;9.646;2024-03-08T01:19:46;101468.50;;;-1.34;100.00
8160;BME280;27404;52.398;9.646;2024-03-08T01:22:12;101467.09;;;-1.28;100.00
8160;BME280;27404;52.398;9.646;2024-03-08T01:24:38;101471.09;;;-1.23;100.00
8160;BME280;27404;52.398;9.646;2024-03-08T01:27:04;101464.13;;;-1.35;100.00
8160;BME280;27404;52.398;9.646;2024-03-08T01:29:29;101456.06;;;-1.35;100.00
8160;BME280;27404;52.398;9.646;2024-03-08T01:31:55;101457.59;;;-1.42;100.00
8160;BME280;27404;52.398;9.646;2024-03-08T01:34:21;101457.78;;;-1.24;100.00
8160;BME280;27404;52.398;9.646;2024-03-08T01:36:48;101449.59;;;-1.32;100.00
8160;BME280;27404;52.398;9.646;2024-03-08T01:39:14;101447.06;;;-1.24;100.00
8160;BME280;27404;52.398;9.646;2024-03-08T01:41:40;101438.03;;;-1.23;100.00
8160;BME280;27404;52.398;9.646;2024-03-08T01:44:06;101437.84;;;-1.31;100.00
8160;BME280;27404;52.398;9.646;2024-03-08T01:46:33;101432.22;;;-1.28;100.00
8160;BME280;27404;52.398;9.646;2024-03-08T01:49:00;101431.09;;;-1.36;100.00
8160;BME280;27404;52.398;9.646;2024-03-08T01:51:26;101427.09;;;-1.51;100.00
8160;BME280;27404;52.398;9.646;2024-03-08T01:53:55;101426.56;;;-1.35;100.00
8160;BME280;27404;52.398;9.646;2024-03-08T01:56:21;101418.53;;;-1.35;100.00
8160;BME280;27404;52.398;9.646;2024-03-08T01:58:46;101419.94;;;-1.31;100.00
8160;BME280;27404;52.398;9.646;2024-03-08T02:01:12;101416.28;;;-1.20;100.00
8160;BME280;27404;52.398;9.646;2024-03-08T02:03:41;101410.22;;;-1.22;100.00
8160;BME280;27404;52.398;9.646;2024-03-08T02:06:09;101414.91;;;-1.14;100.00
8160;BME280;27404;52.398;9.646;2024-03-08T02:08:36;101411.34;;;-1.25;100.00
8160;BME280;27404;52.398;9.646;2024-03-08T02:11:01;101410.09;;;-1.11;100.00
8160;BME280;27404;52.398;9.646;2024-03-08T02:13:27;101404.16;;;-1.14;100.00
8160;BME280;27404;52.398;9.646;2024-03-08T02:15:58;101407.13;;;-1.08;100.00
8160;BME280;27404;52.398;9.646;2024-03-08T02:18:25;101402.88;;;-1.20;100.00
8160;BME280;27404;52.398;9.646;2024-03-08T02:20:58;101399.06;;;-1.17;100.00
8160;BME280;27404;52.398;9.646;2024-03-08T02:23:24;101400.78;;;-1.16;100.00
8160;BME280;27404;52.398;9.646;2024-03-08T02:25:53;101396.25;;;-1.16;100.00
8160;BME280;27404;52.398;9.646;2024-03-08T02:28:20;101397.06;;;-1.25;100.00
8160;BME280;27404;52.398;9.646;2024-03-08T02:30:49;101395.81;;;-1.21;100.00
8160;BME280;27404;52.398;9.646;2024-03-08T02:33:17;101385.78;;;-1.29;100.00
8160;BME280;27404;52.398;9.646;2024-03-08T02:35:43;101394.81;;;-1.30;100.00
8160;BME280;27404;52.398;9.646;2024-03-08T02:38:13;101382.25;;;-1.29;100.00
8160;BME280;27404;52.398;9.646;2024-03-08T02:40:44;101383.97;;;-1.18;100.00
8160;BME280;27404;52.398;9.646;2024-03-08T02:43:10;101378.88;;;-1.22;100.00
8160;BME280;27404;52.398;9.646;2024-03-08T02:45:36;101380.16;;;-1.26;100.00
8160;BME280;27404;52.398;9.646;2024-03-08T02:48:02;101378.16;;;-1.33;100.00
8160;BME280;27404;52.398;9.646;2024-03-08T02:50:28;101379.88;;;-1.32;100.00
8160;BME280;27404;52.398;9.646;2024-03-08T02:52:54;101377.47;;;-1.36;100.00
8160;BME280;27404;52.398;9.646;2024-03-08T02:55:19;101378.69;;;-1.50;100.00
8160;BME280;27404;52.398;9.646;2024-03-08T02:57:46;101372.66;;;-1.42;100.00
8160;BME280;27404;52.398;9.646;2024-03-08T03:00:15;101374.31;;;-1.51;100.00
8160;BME280;27404;52.398;9.646;2024-03-08T03:02:41;101374.47;;;-1.52;100.00
8160;BME280;27404;52.398;9.646;2024-03-08T03:05:08;101364.56;;;-1.52;100.00
8160;BME280;27404;52.398;9.646;2024-03-08T03:07:35;101365.13;;;-1.58;100.00
8160;BME280;27404;52.398;9.646;2024-03-08T03:10:01;101359.31;;;-1.63;100.00
8160;BME280;27404;52.398;9.646;2024-03-08T03:12:27;101354.25;;;-1.66;100.00
8160;BME280;27404;52.398;9.646;2024-03-08T03:14:53;101350.25;;;-1.82;100.00
8160;BME280;27404;52.398;9.646;2024-03-08T03:17:18;101340.81;;;-1.76;100.00
8160;BME280;27404;52.398;9.646;2024-03-08T03:19:45;101338.41;;;-1.79;100.00
8160;BME280;27404;52.398;9.646;2024-03-08T03:22:12;101347.00;;;-1.85;100.00
8160;BME280;27404;52.398;9.646;2024-03-08T03:24:38;101347.41;;;-1.90;100.00
8160;BME280;27404;52.398;9.646;2024-03-08T03:27:04;101342.78;;;-1.78;100.00
8160;BME280;27404;52.398;9.646;2024-03-08T03:29:44;101340.63;;;-1.94;100.00
8160;BME280;27404;52.398;9.646;2024-03-08T03:32:15;101351.16;;;-2.02;100.00
8160;BME280;27404;52.398;9.646;2024-03-08T03:34:41;101343.28;;;-2.04;100.00
8160;BME280;27404;52.398;9.646;2024-03-08T03:37:09;101338.91;;;-2.05;100.00
8160;BME280;27404;52.398;9.646;2024-03-08T03:39:38;101341.72;;;-2.06;100.00
8160;BME280;27404;52.398;9.646;2024-03-08T03:42:18;101347.78;;;-2.04;100.00
8160;BME280;27404;52.398;9.646;2024-03-08T03:44:45;101336.66;;;-2.00;100.00
8160;BME280;27404;52.398;9.646;2024-03-08T03:47:12;101337.56;;;-2.20;100.00
8160;BME280;27404;52.398;9.646;2024-03-08T03:49:38;101344.03;;;-2.23;100.00
8160;BME280;27404;52.398;9.646;2024-03-08T03:52:03;101338.94;;;-2.26;100.00
8160;BME280;27404;52.398;9.646;2024-03-08T03:54:29;101330.88;;;-2.36;100.00
8160;BME280;27404;52.398;9.646;2024-03-08T03:56:56;101331.66;;;-2.45;100.00
8160;BME280;27404;52.398;9.646;2024-03-08T03:59:21;101329.78;;;-2.33;100.00
8160;BME280;27404;52.398;9.646;2024-03-08T04:01:47;101329.91;;;-2.25;100.00
8160;BME280;27404;52.398;9.646;2024-03-08T04:04:15;101330.81;;;-2.46;100.00
8160;BME280;27404;52.398;9.646;2024-03-08T04:06:40;101323.31;;;-2.52;100.00
8160;BME280;27404;52.398;9.646;2024-03-08T04:09:06;101324.94;;;-2.61;100.00
8160;BME280;27404;52.398;9.646;2024-03-08T04:11:32;101327.97;;;-2.75;100.00
8160;BME280;27404;52.398;9.646;2024-03-08T04:13:57;101331.81;;;-2.89;100.00
8160;BME280;27404;52.398;9.646;2024-03-08T04:16:22;101328.56;;;-2.72;100.00
8160;BME280;27404;52.398;9.646;2024-03-08T04:18:49;101327.78;;;-2.62;100.00
8160;BME280;27404;52.398;9.646;2024-03-08T04:21:14;101323.78;;;-2.47;100.00
8160;BME280;27404;52.398;9.646;2024-03-08T04:23:40;101325.13;;;-2.53;100.00
8160;BME280;27404;52.398;9.646;2024-03-08T04:26:05;101330.69;;;-2.44;100.00
8160;BME280;27404;52.398;9.646;2024-03-08T04:28:32;101328.78;;;-2.32;100.00
8160;BME280;27404;52.398;9.646;2024-03-08T04:30:58;101327.88;;;-2.43;100.00
8160;BME280;27404;52.398;9.646;2024-03-08T04:33:26;101322.19;;;-2.49;100.00
8160;BME280;27404;52.398;9.646;2024-03-08T04:35:52;101326.78;;;-2.61;100.00
8160;BME280;27404;52.398;9.646;2024-03-08T04:38:18;101327.38;;;-2.79;100.00
8160;BME280;27404;52.398;9.646;2024-03-08T04:40:43;101322.69;;;-2.65;100.00
8160;BME280;27404;52.398;9.646;2024-03-08T04:43:09;101318.56;;;-2.70;100.00
8160;BME280;27404;52.398;9.646;2024-03-08T04:45:36;101316.91;;;-2.61;100.00
8160;BME280;27404;52.398;9.646;2024-03-08T04:48:02;101312.28;;;-2.59;100.00
8160;BME280;27404;52.398;9.646;2024-03-08T04:50:27;101313.44;;;-2.51;100.00
8160;BME280;27404;52.398;9.646;2024-03-08T04:52:56;101308.97;;;-2.51;100.00
8160;BME280;27404;52.398;9.646;2024-03-08T04:55:21;101303.72;;;-2.53;100.00
8160;BME280;27404;52.398;9.646;2024-03-08T04:57:47;101303.06;;;-2.45;100.00
8160;BME280;27404;52.398;9.646;2024-03-08T05:00:13;101307.44;;;-2.44;100.00
8160;BME280;27404;52.398;9.646;2024-03-08T05:02:41;101294.66;;;-2.30;100.00
8160;BME280;27404;52.398;9.646;2024-03-08T05:05:07;101303.00;;;-2.33;100.00
8160;BME280;27404;52.398;9.646;2024-03-08T05:07:34;101304.81;;;-2.34;100.00
8160;BME280;27404;52.398;9.646;2024-03-08T05:10:00;101298.88;;;-2.38;100.00
8160;BME280;27404;52.398;9.646;2024-03-08T05:12:27;101298.47;;;-2.33;100.00
8160;BME280;27404;52.398;9.646;2024-03-08T05:14:53;101290.41;;;-2.43;100.00
8160;BME280;27404;52.398;9.646;2024-03-08T05:17:19;101294.63;;;-2.40;100.00
8160;BME280;27404;52.398;9.646;2024-03-08T05:19:44;101294.31;;;-2.47;100.00
8160;BME280;27404;52.398;9.646;2024-03-08T05:22:10;101290.13;;;-2.40;100.00
8160;BME280;27404;52.398;9.646;2024-03-08T05:24:35;101294.63;;;-2.40;100.00
8160;BME280;27404;52.398;9.646;2024-03-08T05:27:01;101295.34;;;-2.38;100.00
8160;BME280;27404;52.398;9.646;2024-03-08T05:29:28;101295.59;;;-2.41;100.00
8160;BME280;27404;52.398;9.646;2024-03-08T05:31:54;101302.28;;;-2.35;100.00
8160;BME280;27404;52.398;9.646;2024-03-08T05:34:20;101303.06;;;-2.45;100.00
8160;BME280;27404;52.398;9.646;2024-03-08T05:36:46;101299.53;;;-2.45;100.00
8160;BME280;27404;52.398;9.646;2024-03-08T05:39:12;101301.66;;;-2.49;100.00
8160;BME280;27404;52.398;9.646;2024-03-08T05:41:39;101291.06;;;-2.50;100.00
8160;BME280;27404;52.398;9.646;2024-03-08T05:44:05;101303.78;;;-2.43;100.00
8160;BME280;27404;52.398;9.646;2024-03-08T05:46:31;101299.69;;;-2.47;100.00
8160;BME280;27404;52.398;9.646;2024-03-08T05:48:56;101292.63;;;-2.48;100.00
8160;BME280;27404;52.398;9.646;2024-03-08T05:51:26;101288.03;;;-2.67;100.00
8160;BME280;27404;52.398;9.646;2024-03-08T05:53:53;101293.97;;;-2.63;100.00
8160;BME280;27404;52.398;9.646;2024-03-08T05:56:21;101296.13;;;-2.78;100.00
8160;BME280;27404;52.398;9.646;2024-03-08T05:58:48;101292.81;;;-2.61;100.00
8160;BME280;27404;52.398;9.646;2024-03-08T06:01:15;101293.34;;;-2.46;100.00
8160;BME280;27404;52.398;9.646;2024-03-08T06:03:40;101294.63;;;-2.40;100.00
8160;BME280;27404;52.398;9.646;2024-03-08T06:06:13;101293.19;;;-2.44;100.00
8160;BME280;27404;52.398;9.646;2024-03-08T06:08:39;101291.88;;;-2.19;100.00
8160;BME280;27404;52.398;9.646;2024-03-08T06:11:05;101291.88;;;-2.19;100.00
8160;BME280;27404;52.398;9.646;2024-03-08T06:13:34;101291.41;;;-2.03;100.00
8160;BME280;27404;52.398;9.646;2024-03-08T06:16:00;101286.84;;;-2.12;100.00
8160;BME280;27404;52.398;9.646;2024-03-08T06:18:34;101295.72;;;-2.12;100.00
8160;BME280;27404;52.398;9.646;2024-03-08T06:21:05;101294.47;;;-1.98;100.00
8160;BME280;27404;52.398;9.646;2024-03-08T06:23:34;101288.44;;;-2.00;100.00
8160;BME280;27404;52.398;9.646;2024-03-08T06:26:09;101286.88;;;-1.92;100.00
8160;BME280;27404;52.398;9.646;2024-03-08T06:28:34;101293.00;;;-1.81;100.00
8160;BME280;27404;52.398;9.646;2024-03-08T06:31:00;101284.41;;;-1.65;100.00
8160;BME280;27404;52.398;9.646;2024-03-08T06:33:26;101283.25;;;-1.62;100.00
8160;BME280;27404;52.398;9.646;2024-03-08T06:35:53;101285.25;;;-1.54;100.00
8160;BME280;27404;52.398;9.646;2024-03-08T06:38:19;101279.78;;;-1.43;100.00
8160;BME280;27404;52.398;9.646;2024-03-08T06:40:45;101294.88;;;-1.32;100.00
8160;BME280;27404;52.398;9.646;2024-03-08T06:43:14;101282.72;;;-1.26;100.00
8160;BME280;27404;52.398;9.646;2024-03-08T06:45:42;101280.63;;;-1.32;100.00
8160;BME280;27404;52.398;9.646;2024-03-08T06:48:14;101275.94;;;-1.21;100.00
8160;BME280;27404;52.398;9.646;2024-03-08T06:50:39;101273.38;;;-1.22;100.00
8160;BME280;27404;52.398;9.646;2024-03-08T06:53:05;101272.69;;;-1.14;100.00
8160;BME280;27404;52.398;9.646;2024-03-08T06:55:31;101267.31;;;-1.05;100.00
8160;BME280;27404;52.398;9.646;2024-03-08T06:57:58;101267.69;;;-0.90;100.00
8160;BME280;27404;52.398;9.646;2024-03-08T07:00:23;101273.22;;;-0.91;100.00
8160;BME280;27404;52.398;9.646;2024-03-08T07:02:52;101271.94;;;-0.87;100.00
8160;BME280;27404;52.398;9.646;2024-03-08T07:05:19;101275.47;;;-0.77;100.00
8160;BME280;27404;52.398;9.646;2024-03-08T07:07:45;101287.28;;;-0.60;100.00
8160;BME280;27404;52.398;9.646;2024-03-08T07:10:13;101281.44;;;-0.55;100.00
8160;BME280;27404;52.398;9.646;2024-03-08T07:12:41;101274.38;;;-0.46;100.00
8160;BME280;27404;52.398;9.646;2024-03-08T07:15:07;101277.75;;;-0.44;100.00
8160;BME280;27404;52.398;9.646;2024-03-08T07:17:33;101273.13;;;-0.24;100.00
8160;BME280;27404;52.398;9.646;2024-03-08T07:20:00;101274.75;;;-0.03;100.00
8160;BME280;27404;52.398;9.646;2024-03-08T07:22:36;101272.75;;;-0.01;100.00
8160;BME280;27404;52.398;9.646;2024-03-08T07:25:05;101269.28;;;0.07;100.00
8160;BME280;27404;52.398;9.646;2024-03-08T07:27:34;101270.38;;;0.14;100.00
8160;BME280;27404;52.398;9.646;2024-03-08T07:30:03;101266.22;;;0.20;100.00
8160;BME280;27404;52.398;9.646;2024-03-08T07:32:28;101269.47;;;0.23;100.00
8160;BME280;27404;52.398;9.646;2024-03-08T07:34:58;101258.13;;;0.29;100.00
8160;BME280;27404;52.398;9.646;2024-03-08T07:37:23;101262.03;;;0.35;100.00
8160;BME280;27404;52.398;9.646;2024-03-08T07:39:49;101251.88;;;0.47;100.00
8160;BME280;27404;52.398;9.646;2024-03-08T07:42:15;101258.13;;;0.48;100.00
8160;BME280;27404;52.398;9.646;2024-03-08T07:44:41;101248.25;;;0.56;100.00
8160;BME280;27404;52.398;9.646;2024-03-08T07:47:07;101242.56;;;0.59;100.00
8160;BME280;27404;52.398;9.646;2024-03-08T07:49:37;101252.91;;;0.64;100.00
8160;BME280;27404;52.398;9.646;2024-03-08T07:52:03;101240.03;;;0.76;100.00
8160;BME280;27404;52.398;9.646;2024-03-08T07:54:33;101246.78;;;0.80;100.00
8160;BME280;27404;52.398;9.646;2024-03-08T07:56:59;101236.47;;;0.94;100.00
8160;BME280;27404;52.398;9.646;2024-03-08T07:59:24;101237.47;;;0.93;100.00
8160;BME280;27404;52.398;9.646;2024-03-08T08:01:50;101237.50;;;1.01;100.00
8160;BME280;27404;52.398;9.646;2024-03-08T08:04:15;101233.34;;;1.07;100.00
8160;BME280;27404;52.398;9.646;2024-03-08T08:06:43;101227.38;;;1.21;100.00
8160;BME280;27404;52.398;9.646;2024-03-08T08:09:08;101229.44;;;1.27;100.00
8160;BME280;27404;52.398;9.646;2024-03-08T08:11:40;101227.47;;;1.38;100.00
8160;BME280;27404;52.398;9.646;2024-03-08T08:14:09;101232.88;;;1.46;100.00
8160;BME280;27404;52.398;9.646;2024-03-08T08:16:35;101234.78;;;1.54;100.00
8160;BME280;27404;52.398;9.646;2024-03-08T08:19:07;101231.81;;;1.65;100.00
8160;BME280;27404;52.398;9.646;2024-03-08T08:21:34;101236.03;;;1.68;100.00
8160;BME280;27404;52.398;9.646;2024-03-08T08:24:02;101235.41;;;1.82;100.00
8160;BME280;27404;52.398;9.646;2024-03-08T08:26:28;101230.16;;;1.81;100.00
8160;BME280;27404;52.398;9.646;2024-03-08T08:28:54;101232.41;;;1.85;100.00
8160;BME280;27404;52.398;9.646;2024-03-08T08:31:19;101223.16;;;1.96;100.00
8160;BME280;27404;52.398;9.646;2024-03-08T08:33:45;101225.25;;;2.19;100.00
8160;BME280;27404;52.398;9.646;2024-03-08T08:36:10;101226.25;;;2.18;100.00
8160;BME280;27404;52.398;9.646;2024-03-08T08:38:36;101217.31;;;2.26;100.00
8160;BME280;27404;52.398;9.646;2024-03-08T08:41:01;101217.66;;;2.31;100.00
8160;BME280;27404;52.398;9.646;2024-03-08T08:43:27;101218.69;;;2.38;100.00
8160;BME280;27404;52.398;9.646;2024-03-08T08:45:53;101209.41;;;2.41;100.00
8160;BME280;27404;52.398;9.646;2024-03-08T08:48:20;101214.31;;;2.54;100.00
8160;BME280;27404;52.398;9.646;2024-03-08T08:50:46;101203.84;;;2.50;100.00
8160;BME280;27404;52.398;9.646;2024-03-08T08:53:12;101214.66;;;2.59;100.00
8160;BME280;27404;52.398;9.646;2024-03-08T08:55:40;101205.38;;;2.70;100.00
8160;BME280;27404;52.398;9.646;2024-03-08T08:58:06;101211.44;;;2.80;100.00
8160;BME280;27404;52.398;9.646;2024-03-08T09:00:33;101204.69;;;2.84;100.00
8160;BME280;27404;52.398;9.646;2024-03-08T09:03:00;101207.03;;;2.87;100.00
8160;BME280;27404;52.398;9.646;2024-03-08T09:05:25;101200.91;;;3.02;100.00
8160;BME280;27404;52.398;9.646;2024-03-08T09:07:51;101197.53;;;3.16;100.00
8160;BME280;27404;52.398;9.646;2024-03-08T09:10:18;101193.13;;;3.23;100.00
8160;BME280;27404;52.398;9.646;2024-03-08T09:12:44;101200.72;;;3.20;100.00
8160;BME280;27404;52.398;9.646;2024-03-08T09:15:09;101198.84;;;3.20;100.00
8160;BME280;27404;52.398;9.646;2024-03-08T09:17:37;101186.34;;;3.28;100.00
8160;BME280;27404;52.398;9.646;2024-03-08T09:20:07;101192.53;;;3.45;100.00
8160;BME280;27404;52.398;9.646;2024-03-08T09:22:32;101178.84;;;3.46;100.00
8160;BME280;27404;52.398;9.646;2024-03-08T09:24:58;101173.59;;;3.45;100.00
8160;BME280;27404;52.398;9.646;2024-03-08T09:27:23;101172.91;;;3.51;100.00
8160;BME280;27404;52.398;9.646;2024-03-08T09:29:49;101172.56;;;3.54;100.00
8160;BME280;27404;52.398;9.646;2024-03-08T09:32:14;101170.69;;;3.63;100.00
8160;BME280;27404;52.398;9.646;2024-03-08T09:34:40;101166.75;;;3.65;100.00
8160;BME280;27404;52.398;9.646;2024-03-08T09:37:06;101158.34;;;3.92;100.00
8160;BME280;27404;52.398;9.646;2024-03-08T09:39:31;101156.41;;;4.00;100.00
8160;BME280;27404;52.398;9.646;2024-03-08T09:41:59;101141.28;;;3.91;100.00
8160;BME280;27404;52.398;9.646;2024-03-08T09:44:24;101149.91;;;3.87;100.00
8160;BME280;27404;52.398;9.646;2024-03-08T09:46:50;101153.47;;;4.10;100.00
8160;BME280;27404;52.398;9.646;2024-03-08T09:49:19;101131.34;;;4.30;100.00
8160;BME280;27404;52.398;9.646;2024-03-08T09:51:45;101137.34;;;4.40;100.00
8160;BME280;27404;52.398;9.646;2024-03-08T09:54:11;101122.97;;;4.40;100.00
8160;BME280;27404;52.398;9.646;2024-03-08T09:56:39;101124.88;;;4.54;100.00
8160;BME280;27404;52.398;9.646;2024-03-08T09:59:07;101121.88;;;4.49;100.00
8160;BME280;27404;52.398;9.646;2024-03-08T10:01:48;101118.53;;;4.62;100.00
8160;BME280;27404;52.398;9.646;2024-03-08T10:04:13;101118.91;;;4.74;100.00
8160;BME280;27404;52.398;9.646;2024-03-08T10:06:39;101116.22;;;5.04;100.00
8160;BME280;27404;52.398;9.646;2024-03-08T10:09:05;101123.59;;;5.25;100.00
8160;BME280;27404;52.398;9.646;2024-03-08T10:11:33;101108.63;;;5.29;100.00
8160;BME280;27404;52.398;9.646;2024-03-08T10:14:00;101110.25;;;5.24;100.00
8160;BME280;27404;52.398;9.646;2024-03-08T10:16:29;101105.53;;;5.47;100.00
8160;BME280;27404;52.398;9.646;2024-03-08T10:18:56;101087.13;;;5.64;100.00
8160;BME280;27404;52.398;9.646;2024-03-08T10:21:22;101089.53;;;5.53;100.00
8160;BME280;27404;52.398;9.646;2024-03-08T10:23:48;101088.81;;;5.66;100.00
8160;BME280;27404;52.398;9.646;2024-03-08T10:26:16;101087.56;;;5.83;100.00
8160;BME280;27404;52.398;9.646;2024-03-08T10:28:47;101087.16;;;5.86;100.00
8160;BME280;27404;52.398;9.646;2024-03-08T10:31:14;101085.78;;;5.97;100.00
8160;BME280;27404;52.398;9.646;2024-03-08T10:33:40;101074.97;;;6.19;100.00
8160;BME280;27404;52.398;9.646;2024-03-08T10:36:10;101082.41;;;6.10;100.00
8160;BME280;27404;52.398;9.646;2024-03-08T10:38:38;101077.38;;;6.07;100.00
8160;BME280;27404;52.398;9.646;2024-03-08T10:41:08;101079.75;;;5.95;100.00
8160;BME280;27404;52.398;9.646;2024-03-08T10:49:17;101079.22;;;5.85;100.00
8160;BME280;27404;52.398;9.646;2024-03-08T10:51:45;101081.19;;;5.91;100.00
8160;BME280;27404;52.398;9.646;2024-03-08T10:54:13;101067.22;;;5.94;100.00
8160;BME280;27404;52.398;9.646;2024-03-08T10:56:40;101074.84;;;6.05;100.00
8160;BME280;27404;52.398;9.646;2024-03-08T10:59:08;101070.09;;;5.92;100.00
8160;BME280;27404;52.398;9.646;2024-03-08T11:01:33;101062.22;;;5.98;100.00
8160;BME280;27404;52.398;9.646;2024-03-08T11:03:59;101062.22;;;5.98;100.00
8160;BME280;27404;52.398;9.646;2024-03-08T11:06:42;101054.47;;;5.73;100.00
8160;BME280;27404;52.398;9.646;2024-03-08T11:12:20;101049.81;;;5.88;100.00
8160;BME280;27404;52.398;9.646;2024-03-08T11:14:50;101046.94;;;5.90;100.00
8160;BME280;27404;52.398;9.646;2024-03-08T11:20:19;101027.03;;;5.83;100.00
8160;BME280;27404;52.398;9.646;2024-03-08T11:22:50;101028.06;;;5.82;100.00
8160;BME280;27404;52.398;9.646;2024-03-08T11:25:39;101020.50;;;5.77;100.00
8160;BME280;27404;52.398;9.646;2024-03-08T11:28:17;101010.88;;;5.96;100.00
8160;BME280;27404;52.398;9.646;2024-03-08T11:33:28;101006.56;;;6.02;100.00
8160;BME280;27404;52.398;9.646;2024-03-08T11:38:48;100993.66;;;6.11;100.00
8160;BME280;27404;52.398;9.646;2024-03-08T11:41:24;100983.59;;;6.04;100.00
8160;BME280;27404;52.398;9.646;2024-03-08T11:44:02;100982.81;;;6.11;100.00
8160;BME280;27404;52.398;9.646;2024-03-08T11:46:31;100971.97;;;6.11;100.00
8160;BME280;27404;52.398;9.646;2024-03-08T11:48:57;100971.72;;;6.05;100.00
8160;BME280;27404;52.398;9.646;2024-03-08T11:51:22;100966.34;;;5.90;100.00
8160;BME280;27404;52.398;9.646;2024-03-08T11:53:49;100965.34;;;5.98;100.00
8160;BME280;27404;52.398;9.646;2024-03-08T11:56:15;100966.75;;;6.09;100.00
8160;BME280;27404;52.398;9.646;2024-03-08T11:58:41;100953.84;;;6.18;100.00
8160;BME280;27404;52.398;9.646;2024-03-08T12:01:08;100949.06;;;6.20;100.00
8160;BME280;27404;52.398;9.646;2024-03-08T12:03:43;100945.66;;;6.11;100.00
8160;BME280;27404;52.398;9.646;2024-03-08T12:06:09;100946.84;;;6.02;100.00
8160;BME280;27404;52.398;9.646;2024-03-08T12:08:37;100938.97;;;6.07;100.00
8160;BME280;27404;52.398;9.646;2024-03-08T12:11:07;100930.22;;;6.12;100.00
8160;BME280;27404;52.398;9.646;2024-03-08T12:13:35;100922.75;;;6.20;100.00
8160;BME280;27404;52.398;9.646;2024-03-08T12:16:04;100918.63;;;6.25;100.00
8160;BME280;27404;52.398;9.646;2024-03-08T12:18:34;100925.09;;;6.30;100.00
8160;BME280;27404;52.398;9.646;2024-03-08T12:21:12;100912.16;;;6.26;100.00
8160;BME280;27404;52.398;9.646;2024-03-08T12:23:39;100923.28;;;6.44;100.00
8160;BME280;27404;52.398;9.646;2024-03-08T12:26:23;100898.06;;;6.50;100.00
8160;BME280;27404;52.398;9.646;2024-03-08T12:28:49;100911.56;;;6.37;100.00
8160;BME280;27404;52.398;9.646;2024-03-08T12:31:16;100899.97;;;6.57;100.00
8160;BME280;27404;52.398;9.646;2024-03-08T12:33:55;100886.19;;;6.65;100.00
8160;BME280;27404;52.398;9.646;2024-03-08T12:36:24;100893.72;;;6.63;100.00
8160;BME280;27404;52.398;9.646;2024-03-08T12:38:51;100885.56;;;6.63;100.00
8160;BME280;27404;52.398;9.646;2024-03-08T12:41:20;100881.41;;;6.60;100.00
8160;BME280;27404;52.398;9.646;2024-03-08T12:43:46;100874.69;;;6.56;100.00
8160;BME280;27404;52.398;9.646;2024-03-08T12:46:20;100874.13;;;6.74;100.00
8160;BME280;27404;52.398;9.646;2024-03-08T12:48:47;100874.53;;;6.78;100.00
8160;BME280;27404;52.398;9.646;2024-03-08T12:51:17;100867.88;;;6.80;100.00
8160;BME280;27404;52.398;9.646;2024-03-08T12:53:44;100873.31;;;6.87;100.00
8160;BME280;27404;52.398;9.646;2024-03-08T12:56:11;100865.59;;;6.91;100.00
8160;BME280;27404;52.398;9.646;2024-03-08T12:58:37;100864.56;;;6.92;100.00
8160;BME280;27404;52.398;9.646;2024-03-08T13:01:03;100852.84;;;6.98;100.00
8160;BME280;27404;52.398;9.646;2024-03-08T13:03:35;100851.78;;;6.92;100.00
8160;BME280;27404;52.398;9.646;2024-03-08T13:06:02;100843.63;;;6.92;100.00
8160;BME280;27404;52.398;9.646;2024-03-08T13:08:29;100837.34;;;6.78;100.00
8160;BME280;27404;52.398;9.646;2024-03-08T13:10:56;100840.28;;;6.84;100.00
8160;BME280;27404;52.398;9.646;2024-03-08T13:13:22;100840.66;;;6.67;100.00